sensor_id;sensor_type;location;lat;lon;timestamp;pressure;altitude;pressure_sealevel;temperature;humidity
46129;BME280;31860;45.186;5.790;2022-12-18T00:00:44;100128.69;;;6.47;97.99
46129;BME280;31860;45.186;5.790;2022-12-18T00:03:12;100132.97;;;6.47;97.57
46129;BME280;31860;45.186;5.790;2022-12-18T00:05:37;100132.94;;;6.45;97.40
46129;BME280;31860;45.186;5.790;2022-12-18T00:08:10;100134.75;;;6.48;97.51
46129;BME280;31860;45.186;5.790;2022-12-18T00:10:36;100146.88;;;6.49;97.39
46129;BME280;31860;45.186;5.790;2022-12-18T00:13:01;100153.81;;;6.48;96.90
46129;BME280;31860;45.186;5.790;2022-12-18T00:15:26;100153.84;;;6.50;97.00
46129;BME280;31860;45.186;5.790;2022-12-18T00:17:52;100146.06;;;6.50;96.90
46129;BME280;31860;45.186;5.790;2022-12-18T00:20:17;100149.47;;;6.49;96.70
46129;BME280;31860;45.186;5.790;2022-12-18T00:22:48;100153.84;;;6.50;96.58
46129;BME280;31860;45.186;5.790;2022-12-18T00:25:14;100159.00;;;6.48;96.40
46129;BME280;31860;45.186;5.790;2022-12-18T00:27:39;100162.41;;;6.47;96.65
46129;BME280;31860;45.186;5.790;2022-12-18T00:30:05;100151.09;;;6.45;96.41
46129;BME280;31860;45.186;5.790;2022-12-18T00:32:30;100151.91;;;6.43;95.59
46129;BME280;31860;45.186;5.790;2022-12-18T00:34:57;100151.84;;;6.41;95.92
46129;BME280;31860;45.186;5.790;2022-12-18T00:37:23;100157.03;;;6.41;94.87
46129;BME280;31860;45.186;5.790;2022-12-18T00:39:48;100163.94;;;6.41;95.00
46129;BME280;31860;45.186;5.790;2022-12-18T00:42:14;100168.25;;;6.40;94.61
46129;BME280;31860;45.186;5.790;2022-12-18T00:44:58;100167.22;;;6.35;94.40
46129;BME280;31860;45.186;5.790;2022-12-18T00:47:23;100166.22;;;6.32;94.02
46129;BME280;31860;45.186;5.790;2022-12-18T00:49:49;100172.09;;;6.26;94.13
46129;BME280;31860;45.186;5.790;2022-12-18T00:52:14;100165.03;;;6.22;94.53
46129;BME280;31860;45.186;5.790;2022-12-18T00:54:40;100172.78;;;6.21;94.70
46129;BME280;31860;45.186;5.790;2022-12-18T00:57:05;100169.34;;;6.20;94.96
46129;BME280;31860;45.186;5.790;2022-12-18T00:59:30;100168.41;;;6.18;94.18
46129;BME280;31860;45.186;5.790;2022-12-18T01:01:56;100167.56;;;6.19;94.15
46129;BME280;31860;45.186;5.790;2022-12-18T01:04:21;100163.25;;;6.20;93.45
46129;BME280;31860;45.186;5.790;2022-12-18T01:06:47;100166.78;;;6.22;93.24
46129;BME280;31860;45.186;5.790;2022-12-18T01:09:12;100177.16;;;6.22;93.26
46129;BME280;31860;45.186;5.790;2022-12-18T01:11:38;100164.19;;;6.22;93.00
46129;BME280;31860;45.186;5.790;2022-12-18T01:14:03;100169.34;;;6.20;92.29
46129;BME280;31860;45.186;5.790;2022-12-18T01:16:29;100171.03;;;6.20;92.13
46129;BME280;31860;45.186;5.790;2022-12-18T01:18:54;100171.94;;;6.20;92.09
46129;BME280;31860;45.186;5.790;2022-12-18T01:21:20;100174.53;;;6.20;92.02
46129;BME280;31860;45.186;5.790;2022-12-18T01:23:46;100185.72;;;6.19;91.78
46129;BME280;31860;45.186;5.790;2022-12-18T01:26:14;100183.97;;;6.18;91.44
46129;BME280;31860;45.186;5.790;2022-12-18T01:28:41;100179.53;;;6.16;91.72
46129;BME280;31860;45.186;5.790;2022-12-18T01:31:14;100180.34;;;6.15;91.30
46129;BME280;31860;45.186;5.790;2022-12-18T01:33:40;100181.19;;;6.14;90.81
46129;BME280;31860;45.186;5.790;2022-12-18T01:36:05;100184.63;;;6.13;91.13
46129;BME280;31860;45.186;5.790;2022-12-18T01:38:31;100187.09;;;6.10;90.81
46129;BME280;31860;45.186;5.790;2022-12-18T01:40:58;100184.38;;;6.05;91.02
46129;BME280;31860;45.186;5.790;2022-12-18T01:43:41;100186.81;;;6.01;91.09
46129;BME280;31860;45.186;5.790;2022-12-18T01:46:07;100177.19;;;5.98;91.74
46129;BME280;31860;45.186;5.790;2022-12-18T01:48:32;100187.53;;;5.97;91.61
46129;BME280;31860;45.186;5.790;2022-12-18T01:50:57;100193.44;;;5.93;92.23
46129;BME280;31860;45.186;5.790;2022-12-18T01:53:24;100193.44;;;5.93;92.07
46129;BME280;31860;45.186;5.790;2022-12-18T01:55:53;100191.63;;;5.90;92.66
46129;BME280;31860;45.186;5.790;2022-12-18T01:58:24;100195.88;;;5.88;92.36
46129;BME280;31860;45.186;5.790;2022-12-18T02:00:54;100195.88;;;5.88;92.92
46129;BME280;31860;45.186;5.790;2022-12-18T02:03:19;100198.47;;;5.88;92.68
46129;BME280;31860;45.186;5.790;2022-12-18T02:06:12;100192.34;;;5.86;92.40
46129;BME280;31860;45.186;5.790;2022-12-18T02:16:50;100198.19;;;5.81;92.53
46129;BME280;31860;45.186;5.790;2022-12-18T02:25:39;100184.19;;;5.77;92.40
46129;BME280;31860;45.186;5.790;2022-12-18T02:28:11;100192.81;;;5.76;91.90
46129;BME280;31860;45.186;5.790;2022-12-18T02:30:39;100197.13;;;5.75;91.76
46129;BME280;31860;45.186;5.790;2022-12-18T02:33:08;100189.38;;;5.77;91.73
46129;BME280;31860;45.186;5.790;2022-12-18T02:35:36;100200.66;;;5.77;91.12
46129;BME280;31860;45.186;5.790;2022-12-18T02:38:03;100194.66;;;5.78;91.46
46129;BME280;31860;45.186;5.790;2022-12-18T02:40:30;100200.78;;;5.81;90.65
46129;BME280;31860;45.186;5.790;2022-12-18T02:43:02;100205.97;;;5.81;90.29
46129;BME280;31860;45.186;5.790;2022-12-18T02:45:28;100213.72;;;5.81;90.73
46129;BME280;31860;45.186;5.790;2022-12-18T02:47:53;100215.44;;;5.80;90.31
46129;BME280;31860;45.186;5.790;2022-12-18T02:53:01;100218.06;;;5.82;90.47
46129;BME280;31860;45.186;5.790;2022-12-18T02:59:00;100230.09;;;5.79;89.79
46129;BME280;31860;45.186;5.790;2022-12-18T03:01:49;100228.34;;;5.78;89.96
46129;BME280;31860;45.186;5.790;2022-12-18T03:04:25;100227.34;;;5.75;89.73
46129;BME280;31860;45.186;5.790;2022-12-18T03:06:55;100228.25;;;5.77;89.63
46129;BME280;31860;45.186;5.790;2022-12-18T03:09:25;100229.88;;;5.73;89.10
46129;BME280;31860;45.186;5.790;2022-12-18T03:12:00;100238.47;;;5.72;88.98
46129;BME280;31860;45.186;5.790;2022-12-18T03:17:26;100229.78;;;5.70;89.50
46129;BME280;31860;45.186;5.790;2022-12-18T03:19:54;100224.59;;;5.70;89.36
46129;BME280;31860;45.186;5.790;2022-12-18T03:22:23;100231.47;;;5.70;89.25
46129;BME280;31860;45.186;5.790;2022-12-18T03:24:53;100240.13;;;5.70;89.57
46129;BME280;31860;45.186;5.790;2022-12-18T03:27:22;100233.16;;;5.69;89.40
46129;BME280;31860;45.186;5.790;2022-12-18T03:29:52;100240.13;;;5.70;89.44
46129;BME280;31860;45.186;5.790;2022-12-18T03:32:31;100239.25;;;5.70;89.31
46129;BME280;31860;45.186;5.790;2022-12-18T03:35:02;100238.34;;;5.69;89.08
46129;BME280;31860;45.186;5.790;2022-12-18T03:37:28;100238.34;;;5.69;89.11
46129;BME280;31860;45.186;5.790;2022-12-18T03:39:53;100236.69;;;5.71;89.28
46129;BME280;31860;45.186;5.790;2022-12-18T03:45:19;100241.88;;;5.71;89.13
46129;BME280;31860;45.186;5.790;2022-12-18T03:48:07;100240.94;;;5.69;88.83
46129;BME280;31860;45.186;5.790;2022-12-18T03:51:02;100245.31;;;5.70;88.68
46129;BME280;31860;45.186;5.790;2022-12-18T03:56:02;100250.50;;;5.70;88.27
46129;BME280;31860;45.186;5.790;2022-12-18T03:58:30;100253.84;;;5.68;88.15
46129;BME280;31860;45.186;5.790;2022-12-18T04:01:00;100262.47;;;5.67;88.37
46129;BME280;31860;45.186;5.790;2022-12-18T04:03:28;100263.38;;;5.67;88.55
46129;BME280;31860;45.186;5.790;2022-12-18T04:05:55;100259.00;;;5.66;88.14
46129;BME280;31860;45.186;5.790;2022-12-18T04:08:22;100266.75;;;5.66;88.39
46129;BME280;31860;45.186;5.790;2022-12-18T04:10:48;100264.06;;;5.63;88.05
46129;BME280;31860;45.186;5.790;2022-12-18T04:13:27;100261.31;;;5.59;88.06
46129;BME280;31860;45.186;5.790;2022-12-18T04:15:52;100269.84;;;5.56;88.78
46129;BME280;31860;45.186;5.790;2022-12-18T04:18:18;100276.63;;;5.53;88.64
46129;BME280;31860;45.186;5.790;2022-12-18T04:20:43;100273.97;;;5.51;88.72
46129;BME280;31860;45.186;5.790;2022-12-18T04:23:09;100278.09;;;5.46;89.16
46129;BME280;31860;45.186;5.790;2022-12-18T04:25:34;100280.75;;;5.48;88.82
46129;BME280;31860;45.186;5.790;2022-12-18T04:27:59;100280.81;;;5.49;88.43
46129;BME280;31860;45.186;5.790;2022-12-18T04:30:25;100282.44;;;5.47;87.78
46129;BME280;31860;45.186;5.790;2022-12-18T04:32:50;100278.06;;;5.45;87.12
46129;BME280;31860;45.186;5.790;2022-12-18T04:35:16;100279.53;;;5.38;87.40
46129;BME280;31860;45.186;5.790;2022-12-18T04:37:41;100287.94;;;5.33;87.43
46129;BME280;31860;45.186;5.790;2022-12-18T04:40:07;100286.94;;;5.29;87.57
46129;BME280;31860;45.186;5.790;2022-12-18T04:42:32;100289.50;;;5.28;87.97
46129;BME280;31860;45.186;5.790;2022-12-18T04:44:58;100287.59;;;5.24;87.90
46129;BME280;31860;45.186;5.790;2022-12-18T04:47:23;100286.59;;;5.20;88.38
46129;BME280;31860;45.186;5.790;2022-12-18T04:49:48;100290.94;;;5.21;89.36
46129;BME280;31860;45.186;5.790;2022-12-18T04:52:14;100293.53;;;5.21;89.66
46129;BME280;31860;45.186;5.790;2022-12-18T04:54:39;100290.94;;;5.21;89.64
46129;BME280;31860;45.186;5.790;2022-12-18T04:57:05;100295.31;;;5.22;89.67
46129;BME280;31860;45.186;5.790;2022-12-18T04:59:30;100295.31;;;5.22;89.65
46129;BME280;31860;45.186;5.790;2022-12-18T05:01:55;100292.78;;;5.24;89.98
46129;BME280;31860;45.186;5.790;2022-12-18T05:04:21;100300.53;;;5.24;89.26
46129;BME280;31860;45.186;5.790;2022-12-18T05:06:46;100312.59;;;5.23;89.66
46129;BME280;31860;45.186;5.790;2022-12-18T05:09:11;100308.19;;;5.21;89.00
46129;BME280;31860;45.186;5.790;2022-12-18T05:11:37;100317.69;;;5.20;89.74
46129;BME280;31860;45.186;5.790;2022-12-18T05:14:02;100315.00;;;5.19;89.77
46129;BME280;31860;45.186;5.790;2022-12-18T05:16:28;100314.78;;;5.13;90.67
46129;BME280;31860;45.186;5.790;2022-12-18T05:18:53;100314.59;;;5.08;91.00
46129;BME280;31860;45.186;5.790;2022-12-18T05:21:18;100323.94;;;5.05;91.45
46129;BME280;31860;45.186;5.790;2022-12-18T05:23:44;100328.19;;;5.03;93.04
46129;BME280;31860;45.186;5.790;2022-12-18T05:26:14;100327.22;;;5.01;94.08
46129;BME280;31860;45.186;5.790;2022-12-18T05:28:40;100334.78;;;4.96;95.76
46129;BME280;31860;45.186;5.790;2022-12-18T05:31:06;100325.22;;;4.94;96.67
46129;BME280;31860;45.186;5.790;2022-12-18T05:33:33;100326.88;;;4.92;97.61
46129;BME280;31860;45.186;5.790;2022-12-18T05:36:05;100327.66;;;4.91;97.34
46129;BME280;31860;45.186;5.790;2022-12-18T05:38:32;100321.53;;;4.89;97.12
46129;BME280;31860;45.186;5.790;2022-12-18T05:40:58;100334.44;;;4.87;97.10
46129;BME280;31860;45.186;5.790;2022-12-18T05:43:24;100335.38;;;4.89;96.48
46129;BME280;31860;45.186;5.790;2022-12-18T05:45:50;100339.75;;;4.90;96.50
46129;BME280;31860;45.186;5.790;2022-12-18T05:48:16;100330.31;;;4.92;95.88
46129;BME280;31860;45.186;5.790;2022-12-18T05:50:44;100330.31;;;4.92;95.25
46129;BME280;31860;45.186;5.790;2022-12-18T05:53:11;100344.97;;;4.92;94.54
46129;BME280;31860;45.186;5.790;2022-12-18T05:55:38;100345.84;;;4.92;94.73
46129;BME280;31860;45.186;5.790;2022-12-18T05:58:04;100345.03;;;4.93;94.55
46129;BME280;31860;45.186;5.790;2022-12-18T06:00:32;100340.88;;;4.97;93.99
46129;BME280;31860;45.186;5.790;2022-12-18T06:02:58;100353.81;;;4.97;93.93
46129;BME280;31860;45.186;5.790;2022-12-18T06:05:24;100353.88;;;4.98;93.53
46129;BME280;31860;45.186;5.790;2022-12-18T06:07:50;100352.22;;;5.00;93.14
46129;BME280;31860;45.186;5.790;2022-12-18T06:10:15;100355.69;;;5.01;93.06
46129;BME280;31860;45.186;5.790;2022-12-18T06:12:41;100362.63;;;5.02;92.73
46129;BME280;31860;45.186;5.790;2022-12-18T06:15:07;100359.19;;;5.01;93.20
46129;BME280;31860;45.186;5.790;2022-12-18T06:17:33;100363.53;;;5.02;92.34
46129;BME280;31860;45.186;5.790;2022-12-18T06:19:59;100367.81;;;5.02;92.07
46129;BME280;31860;45.186;5.790;2022-12-18T06:22:24;100376.47;;;5.02;92.56
46129;BME280;31860;45.186;5.790;2022-12-18T06:24:50;100373.88;;;5.02;92.26
46129;BME280;31860;45.186;5.790;2022-12-18T06:27:16;100376.47;;;5.02;92.20
46129;BME280;31860;45.186;5.790;2022-12-18T06:29:41;100371.28;;;5.02;92.17
46129;BME280;31860;45.186;5.790;2022-12-18T06:32:07;100381.66;;;5.02;92.61
46129;BME280;31860;45.186;5.790;2022-12-18T06:34:33;100379.81;;;5.00;93.06
46129;BME280;31860;45.186;5.790;2022-12-18T06:36:58;100389.34;;;5.01;93.43
46129;BME280;31860;45.186;5.790;2022-12-18T06:39:24;100387.66;;;5.01;94.01
46129;BME280;31860;45.186;5.790;2022-12-18T06:41:52;100394.59;;;5.02;92.86
46129;BME280;31860;45.186;5.790;2022-12-18T06:44:17;100390.38;;;5.04;92.71
46129;BME280;31860;45.186;5.790;2022-12-18T06:46:42;100397.31;;;5.05;92.46
46129;BME280;31860;45.186;5.790;2022-12-18T06:49:08;100409.44;;;5.06;92.33
46129;BME280;31860;45.186;5.790;2022-12-18T06:51:34;100400.78;;;5.06;91.75
46129;BME280;31860;45.186;5.790;2022-12-18T06:54:00;100409.38;;;5.05;91.14
46129;BME280;31860;45.186;5.790;2022-12-18T06:56:25;100416.31;;;5.06;90.99
46129;BME280;31860;45.186;5.790;2022-12-18T06:58:51;100419.72;;;5.05;90.11
46129;BME280;31860;45.186;5.790;2022-12-18T07:01:16;100427.56;;;5.06;90.66
46129;BME280;31860;45.186;5.790;2022-12-18T07:03:41;100437.16;;;5.09;90.22
46129;BME280;31860;45.186;5.790;2022-12-18T07:06:13;100434.69;;;5.12;89.54
46129;BME280;31860;45.186;5.790;2022-12-18T07:08:40;100446.00;;;5.14;89.20
46129;BME280;31860;45.186;5.790;2022-12-18T07:11:05;100446.00;;;5.14;88.91
46129;BME280;31860;45.186;5.790;2022-12-18T07:13:31;100448.66;;;5.15;88.28
46129;BME280;31860;45.186;5.790;2022-12-18T07:16:09;100452.06;;;5.14;88.10
46129;BME280;31860;45.186;5.790;2022-12-18T07:18:35;100460.63;;;5.13;88.14
46129;BME280;31860;45.186;5.790;2022-12-18T07:21:09;100461.28;;;5.08;87.65
46129;BME280;31860;45.186;5.790;2022-12-18T07:23:35;100455.13;;;5.06;87.27
46129;BME280;31860;45.186;5.790;2022-12-18T07:26:06;100465.38;;;5.03;87.26
46129;BME280;31860;45.186;5.790;2022-12-18T07:28:32;100458.31;;;4.99;87.91
46129;BME280;31860;45.186;5.790;2022-12-18T07:31:02;100459.31;;;5.02;87.45
46129;BME280;31860;45.186;5.790;2022-12-18T07:33:27;100460.16;;;5.01;86.90
46129;BME280;31860;45.186;5.790;2022-12-18T07:35:53;100460.00;;;4.98;86.62
46129;BME280;31860;45.186;5.790;2022-12-18T07:38:18;100459.03;;;4.96;87.26
46129;BME280;31860;45.186;5.790;2022-12-18T07:40:43;100456.59;;;4.99;87.36
46129;BME280;31860;45.186;5.790;2022-12-18T07:43:09;100460.06;;;5.00;87.17
46129;BME280;31860;45.186;5.790;2022-12-18T07:45:34;100454.88;;;5.00;88.30
46129;BME280;31860;45.186;5.790;2022-12-18T07:48:00;100456.72;;;5.02;88.50
46129;BME280;31860;45.186;5.790;2022-12-18T07:50:25;100469.72;;;5.04;88.58
46129;BME280;31860;45.186;5.790;2022-12-18T07:52:53;100469.03;;;5.08;87.90
46129;BME280;31860;45.186;5.790;2022-12-18T07:55:19;100468.28;;;5.10;87.78
46129;BME280;31860;45.186;5.790;2022-12-18T07:57:44;100475.31;;;5.13;87.13
46129;BME280;31860;45.186;5.790;2022-12-18T08:00:11;100466.66;;;5.12;87.00
46129;BME280;31860;45.186;5.790;2022-12-18T08:02:36;100471.69;;;5.09;86.97
46129;BME280;31860;45.186;5.790;2022-12-18T08:05:02;100474.22;;;5.08;87.03
46129;BME280;31860;45.186;5.790;2022-12-18T08:07:28;100477.38;;;5.01;86.98
46129;BME280;31860;45.186;5.790;2022-12-18T08:09:53;100481.59;;;4.99;87.11
46129;BME280;31860;45.186;5.790;2022-12-18T08:12:19;100472.06;;;4.98;86.79
46129;BME280;31860;45.186;5.790;2022-12-18T08:14:44;100471.03;;;4.94;86.67
46129;BME280;31860;45.186;5.790;2022-12-18T08:17:10;100476.97;;;4.92;87.46
46129;BME280;31860;45.186;5.790;2022-12-18T08:19:35;100477.66;;;4.88;87.76
46129;BME280;31860;45.186;5.790;2022-12-18T08:22:00;100473.25;;;4.85;88.54
46129;BME280;31860;45.186;5.790;2022-12-18T08:24:26;100485.22;;;4.83;89.35
46129;BME280;31860;45.186;5.790;2022-12-18T08:26:51;100485.09;;;4.80;90.11
46129;BME280;31860;45.186;5.790;2022-12-18T08:29:17;100480.81;;;4.80;90.86
46129;BME280;31860;45.186;5.790;2022-12-18T08:31:42;100487.69;;;4.80;92.42
46129;BME280;31860;45.186;5.790;2022-12-18T08:34:08;100486.00;;;4.80;93.42
46129;BME280;31860;45.186;5.790;2022-12-18T08:36:33;100475.56;;;4.79;94.20
46129;BME280;31860;45.186;5.790;2022-12-18T08:38:59;100473.81;;;4.78;94.82
46129;BME280;31860;45.186;5.790;2022-12-18T08:41:24;100471.94;;;4.75;95.36
46129;BME280;31860;45.186;5.790;2022-12-18T08:43:50;100469.41;;;4.77;95.38
46129;BME280;31860;45.186;5.790;2022-12-18T08:46:37;100473.69;;;4.75;96.52
46129;BME280;31860;45.186;5.790;2022-12-18T08:49:03;100474.53;;;4.75;96.42
46129;BME280;31860;45.186;5.790;2022-12-18T08:51:29;100473.59;;;4.73;96.83
46129;BME280;31860;45.186;5.790;2022-12-18T08:53:55;100457.09;;;4.71;96.83
46129;BME280;31860;45.186;5.790;2022-12-18T08:56:20;100459.78;;;4.73;96.79
46129;BME280;31860;45.186;5.790;2022-12-18T08:58:46;100468.41;;;4.73;95.97
46129;BME280;31860;45.186;5.790;2022-12-18T09:01:12;100468.34;;;4.72;96.16
46129;BME280;31860;45.186;5.790;2022-12-18T09:03:39;100466.66;;;4.72;96.33
46129;BME280;31860;45.186;5.790;2022-12-18T09:06:05;100463.22;;;4.73;96.75
46129;BME280;31860;45.186;5.790;2022-12-18T09:08:30;100459.06;;;4.77;97.49
46129;BME280;31860;45.186;5.790;2022-12-18T09:10:56;100459.22;;;4.80;98.27
46129;BME280;31860;45.186;5.790;2022-12-18T09:13:22;100459.34;;;4.83;98.04
46129;BME280;31860;45.186;5.790;2022-12-18T09:15:49;100459.50;;;4.86;98.05
46129;BME280;31860;45.186;5.790;2022-12-18T09:18:17;100460.50;;;4.90;97.81
46129;BME280;31860;45.186;5.790;2022-12-18T09:20:43;100452.91;;;4.94;97.43
46129;BME280;31860;45.186;5.790;2022-12-18T09:23:09;100453.06;;;4.97;97.66
46129;BME280;31860;45.186;5.790;2022-12-18T09:25:35;100452.38;;;5.01;98.21
46129;BME280;31860;45.186;5.790;2022-12-18T09:28:06;100456.09;;;5.08;98.07
46129;BME280;31860;45.186;5.790;2022-12-18T09:30:40;100455.47;;;5.13;98.58
46129;BME280;31860;45.186;5.790;2022-12-18T09:33:06;100446.06;;;5.15;98.75
46129;BME280;31860;45.186;5.790;2022-12-18T09:35:32;100453.97;;;5.18;99.25
46129;BME280;31860;45.186;5.790;2022-12-18T09:37:57;100449.78;;;5.22;98.73
46129;BME280;31860;45.186;5.790;2022-12-18T09:40:25;100462.84;;;5.25;99.07
46129;BME280;31860;45.186;5.790;2022-12-18T09:42:57;100457.69;;;5.25;99.24
46129;BME280;31860;45.186;5.790;2022-12-18T09:45:24;100451.75;;;5.27;99.13
46129;BME280;31860;45.186;5.790;2022-12-18T09:47:52;100460.47;;;5.29;99.44
46129;BME280;31860;45.186;5.790;2022-12-18T09:52:51;100462.44;;;5.35;98.49
46129;BME280;31860;45.186;5.790;2022-12-18T09:55:38;100454.91;;;5.41;97.93
46129;BME280;31860;45.186;5.790;2022-12-18T10:00:35;100466.44;;;5.49;97.24
46129;BME280;31860;45.186;5.790;2022-12-18T10:03:09;100473.72;;;5.57;97.21
46129;BME280;31860;45.186;5.790;2022-12-18T10:08:29;100467.44;;;5.73;96.22
46129;BME280;31860;45.186;5.790;2022-12-18T10:13:52;100475.06;;;5.91;95.23
46129;BME280;31860;45.186;5.790;2022-12-18T10:22:25;100483.28;;;6.23;94.57
46129;BME280;31860;45.186;5.790;2022-12-18T10:25:14;100465.44;;;6.32;93.03
46129;BME280;31860;45.186;5.790;2022-12-18T10:27:41;100455.53;;;6.44;92.13
46129;BME280;31860;45.186;5.790;2022-12-18T10:30:21;100460.22;;;6.54;91.77
46129;BME280;31860;45.186;5.790;2022-12-18T10:32:47;100451.94;;;6.64;91.28
46129;BME280;31860;45.186;5.790;2022-12-18T10:35:31;100454.91;;;6.75;90.16
46129;BME280;31860;45.186;5.790;2022-12-18T10:43:23;100451.44;;;7.00;87.93
46129;BME280;31860;45.186;5.790;2022-12-18T10:48:54;100438.84;;;7.10;87.33
46129;BME280;31860;45.186;5.790;2022-12-18T10:51:26;100444.25;;;7.16;87.42
46129;BME280;31860;45.186;5.790;2022-12-18T10:54:13;100429.66;;;7.20;86.37
46129;BME280;31860;45.186;5.790;2022-12-18T10:56:40;100429.91;;;7.27;86.94
46129;BME280;31860;45.186;5.790;2022-12-18T10:59:08;100425.63;;;7.29;86.46
46129;BME280;31860;45.186;5.790;2022-12-18T11:01:57;100426.56;;;7.31;85.87
46129;BME280;31860;45.186;5.790;2022-12-18T11:04:31;100424.06;;;7.34;85.55
46129;BME280;31860;45.186;5.790;2022-12-18T11:07:05;100417.03;;;7.32;84.61
46129;BME280;31860;45.186;5.790;2022-12-18T11:09:34;100420.53;;;7.32;85.13
46129;BME280;31860;45.186;5.790;2022-12-18T11:12:19;100421.47;;;7.34;86.05
46129;BME280;31860;45.186;5.790;2022-12-18T11:14:50;100418.09;;;7.37;86.15
46129;BME280;31860;45.186;5.790;2022-12-18T11:17:24;100412.91;;;7.37;86.11
46129;BME280;31860;45.186;5.790;2022-12-18T11:19:53;100412.09;;;7.39;86.26
46129;BME280;31860;45.186;5.790;2022-12-18T11:22:20;100403.47;;;7.40;86.34
46129;BME280;31860;45.186;5.790;2022-12-18T11:27:20;100389.75;;;7.44;86.99
46129;BME280;31860;45.186;5.790;2022-12-18T11:29:49;100398.53;;;7.48;87.00
46129;BME280;31860;45.186;5.790;2022-12-18T11:34:46;100383.13;;;7.54;87.30
46129;BME280;31860;45.186;5.790;2022-12-18T11:37:15;100379.72;;;7.56;87.98
46129;BME280;31860;45.186;5.790;2022-12-18T11:39:56;100378.94;;;7.59;88.34
46129;BME280;31860;45.186;5.790;2022-12-18T11:42:37;100377.34;;;7.64;88.07
46129;BME280;31860;45.186;5.790;2022-12-18T11:50:31;100358.78;;;7.80;87.38
46129;BME280;31860;45.186;5.790;2022-12-18T11:52:58;100363.25;;;7.84;86.98
46129;BME280;31860;45.186;5.790;2022-12-18T11:58:47;100357.59;;;7.99;86.75
46129;BME280;31860;45.186;5.790;2022-12-18T12:01:06;100349.16;;;8.07;86.14
46129;BME280;31860;45.186;5.790;2022-12-18T12:19:49;100326.66;;;8.72;81.08
46129;BME280;31860;45.186;5.790;2022-12-18T12:22:27;100322.59;;;8.83;80.47
46129;BME280;31860;45.186;5.790;2022-12-18T12:28:09;100322.22;;;9.02;77.79
46129;BME280;31860;45.186;5.790;2022-12-18T12:30:51;100315.47;;;9.10;76.32
46129;BME280;31860;45.186;5.790;2022-12-18T12:41:03;100292.69;;;9.38;73.98
46129;BME280;31860;45.186;5.790;2022-12-18T12:43:44;100296.28;;;9.45;73.82
46129;BME280;31860;45.186;5.790;2022-12-18T12:46:12;100295.63;;;9.52;73.15
46129;BME280;31860;45.186;5.790;2022-12-18T12:48:49;100295.78;;;9.60;73.16
46129;BME280;31860;45.186;5.790;2022-12-18T12:51:21;100299.41;;;9.68;73.01
46129;BME280;31860;45.186;5.790;2022-12-18T12:53:48;100283.94;;;9.77;72.37
46129;BME280;31860;45.186;5.790;2022-12-18T12:56:16;100281.44;;;9.81;70.96
46129;BME280;31860;45.186;5.790;2022-12-18T12:59:04;100291.97;;;9.86;70.56
46129;BME280;31860;45.186;5.790;2022-12-18T13:01:52;100289.41;;;9.89;69.78
46129;BME280;31860;45.186;5.790;2022-12-18T13:09:20;100276.66;;;10.02;69.56
46129;BME280;31860;45.186;5.790;2022-12-18T13:11:46;100283.69;;;10.05;69.24
46129;BME280;31860;45.186;5.790;2022-12-18T13:14:36;100270.72;;;10.09;69.22
46129;BME280;31860;45.186;5.790;2022-12-18T13:24:59;100265.66;;;10.18;68.13
46129;BME280;31860;45.186;5.790;2022-12-18T13:31:06;100262.16;;;10.16;67.32
46129;BME280;31860;45.186;5.790;2022-12-18T13:35:51;100243.06;;;10.19;67.92
46129;BME280;31860;45.186;5.790;2022-12-18T13:38:37;100243.88;;;10.16;66.99
46129;BME280;31860;45.186;5.790;2022-12-18T13:43:45;100240.34;;;10.13;66.92
46129;BME280;31860;45.186;5.790;2022-12-18T13:51:35;100240.94;;;10.01;67.31
46129;BME280;31860;45.186;5.790;2022-12-18T13:54:05;100242.59;;;9.96;67.55
46129;BME280;31860;45.186;5.790;2022-12-18T13:56:44;100239.97;;;9.95;67.88
46129;BME280;31860;45.186;5.790;2022-12-18T14:02:00;100240.59;;;9.83;67.68
46129;BME280;31860;45.186;5.790;2022-12-18T14:04:31;100237.03;;;9.78;68.30
46129;BME280;31860;45.186;5.790;2022-12-18T14:07:13;100241.25;;;9.73;68.07
46129;BME280;31860;45.186;5.790;2022-12-18T14:09:43;100247.34;;;9.72;68.13
46129;BME280;31860;45.186;5.790;2022-12-18T14:12:20;100240.28;;;9.67;68.60
46129;BME280;31860;45.186;5.790;2022-12-18T14:15:22;100249.78;;;9.65;68.59
46129;BME280;31860;45.186;5.790;2022-12-18T14:17:51;100246.16;;;9.58;68.60
46129;BME280;31860;45.186;5.790;2022-12-18T14:20:17;100246.06;;;9.52;68.98
46129;BME280;31860;45.186;5.790;2022-12-18T14:22:47;100250.28;;;9.47;69.26
46129;BME280;31860;45.186;5.790;2022-12-18T14:25:21;100255.44;;;9.44;69.68
46129;BME280;31860;45.186;5.790;2022-12-18T14:28:42;100262.34;;;9.42;69.83
46129;BME280;31860;45.186;5.790;2022-12-18T14:30:37;100249.19;;;9.37;69.82
46129;BME280;31860;45.186;5.790;2022-12-18T14:33:24;100244.81;;;9.35;70.11
46129;BME280;31860;45.186;5.790;2022-12-18T14:38:22;100247.31;;;9.30;70.92
46129;BME280;31860;45.186;5.790;2022-12-18T14:43:26;100255.84;;;9.23;70.95
46129;BME280;31860;45.186;5.790;2022-12-18T14:45:52;100260.16;;;9.21;71.19
46129;BME280;31860;45.186;5.790;2022-12-18T14:51:01;100261.63;;;9.10;71.30
46129;BME280;31860;45.186;5.790;2022-12-18T14:53:43;100251.97;;;9.06;71.58
46129;BME280;31860;45.186;5.790;2022-12-18T14:56:21;100253.56;;;9.01;71.98
46129;BME280;31860;45.186;5.790;2022-12-18T14:58:50;100254.38;;;8.97;72.22
46129;BME280;31860;45.186;5.790;2022-12-18T15:01:32;100254.28;;;8.94;72.54
46129;BME280;31860;45.186;5.790;2022-12-18T15:03:59;100249.00;;;8.90;72.66
46129;BME280;31860;45.186;5.790;2022-12-18T15:08:53;100256.63;;;8.82;73.11
46129;BME280;31860;45.186;5.790;2022-12-18T15:11:35;100251.31;;;8.79;73.58
46129;BME280;31860;45.186;5.790;2022-12-18T15:14:39;100266.00;;;8.76;73.73
46129;BME280;31860;45.186;5.790;2022-12-18T15:17:16;100261.50;;;8.69;73.66
46129;BME280;31860;45.186;5.790;2022-12-18T15:19:44;100260.47;;;8.63;74.32
46129;BME280;31860;45.186;5.790;2022-12-18T15:22:27;100256.06;;;8.59;74.24
46129;BME280;31860;45.186;5.790;2022-12-18T15:24:55;100268.09;;;8.56;74.84